LDSPLDRI

Guest
Details From LDSP - SPLIT
To LDRI - RIJEKA
Flight Number -
Tags generated
Created
Modified
Stats Distance 125 nm / 232 km
Max Altitude 10,000 ft / 3,048 m
Waypoints 3
Social Downloads 1
Likes 0
Share VATSIM

Download

Looking for another format? Having issues loading an existing format? Contact us
Advertisement - Login to hide

Notes

Basic altitude profile: - Ascent Rate: 2500ft/min - Ascent Speed: 250kts - Cruise Altitude: 35000ft - Cruise Speed: 420kts - Descent Rate: 1500ft/min - Descent Speed: 250kts Options: - Use NATs: yes - Use PACOTS: yes - Use low airways: yes - Use high airways: yes

Route

LDSP ALANU LDRI

ID Type Via Altitude Latitude Longitude Leg Dist Tot Dist Heading (true) Name
O LDSP APT - 0 ft / 0 m 43.53903˚ 16.29811˚ - 0 nm - SPLIT
ALANU FIX - 10,000 ft / 3,048 m 44.52472˚ 15.28056˚ 73 nm 73 nm 324° / 323° -
O LDRI APT - 0 ft / 0 m 45.21663˚ 14.57081˚ 51 nm 125 nm 324° / 324° RIJEKA

Altitude Profile

Advertisement - Login to hide

LDSP

Details ICAO LDSP (SPU)
Name SPLIT
Region Croatia
Timezone Europe/Zagreb (UTC+2.0)
Stats Elevation 79 ft / 24 m (AMSL)
Location 43.539026° 16.298112°
Runways 1
Magnetic Variation 3.884° E

METAR

LDSP 221400Z 12008KT 9999 FEW035 25/17 Q1014 NOSIG

Decode

TAF

TAF LDSP 221125Z 2212/2312 13007KT 9999 FEW040 TX25/2213Z TN18/2303Z PROB40 TEMPO 2213/2216 23009KT PROB30 TEMPO 2213/2300 FEW030CB PROB40 TEMPO 2300/2312 23008KT -TSRA FEW030CB BKN035 BECMG 2307/2309 11012KT

Decode

Departure Runways

ID Width Length Bearing (true) Bearing (mag) Surface Threshold Offset Overrun Length
05 148 ft / 45 m 8,357 ft / 2,547 m 52.48° 48.60° Asphalt 0 ft / 0 m 76 ft / 23 m
23 148 ft / 45 m 8,357 ft / 2,547 m 232.50° 228.62° Asphalt 525 ft / 160 m 820 ft / 250 m

LDRI

Details ICAO LDRI (RJK)
Name RIJEKA
Region Croatia
Timezone Europe/Zagreb (UTC+2.0)
Stats Elevation 278 ft / 85 m (AMSL)
Location 45.216635° 14.570813°
Runways 1
Magnetic Variation 3.672° E

METAR

LDRI 221400Z 28005KT 230V330 9999 FEW030 21/16 Q1015

Decode

TAF

TAF LDRI 221125Z 2212/2312 VRB02KT 9999 BKN035 TX22/2212Z TN16/2303Z PROB30 TEMPO 2212/2214 SHRA FEW030TCU BKN040 PROB40 TEMPO 2300/2307 TSRA FEW030CB BKN035 PROB30 TEMPO 2307/2312 TSRA FEW030CB BKN035

Decode

Destination Runways

ID Width Length Bearing (true) Bearing (mag) Surface Threshold Offset Overrun Length
14 148 ft / 45 m 8,161 ft / 2,488 m 143.77° 140.10° Asphalt 0 ft / 0 m 0 ft / 0 m
32 148 ft / 45 m 8,161 ft / 2,488 m 323.78° 320.11° Asphalt 0 ft / 0 m 0 ft / 0 m

Approach Navaids

Runway Type Ident Frequency Range Bearing (true) Bearing (mag) Slope Elevation
14 Localiser IKR 108.50 MHz 25 nm / 46 km 143.68° 140.01° - 200 ft / 61 m (AMSL)
14 Glidescope IKR 108.50 MHz 25 nm / 46 km 143.68° 140.01° 3.00° 259 ft / 79 m (AMSL)

Popular Alternatives